• Join FlightAware (Why Join?)
  • Login
  • US Flag 
09:32AM EST


 

Airport Tracker/Info


-or-


 

Live Flight TrackerFlight Track Log ✈ DAL1349 ✈ 26-Apr-2013 ✈ KCRW - KATL

Flight Track Log - Related Links

Times and Time Zones

All times are in EDT time to prevent confusion due to time zone crossing. See the DAL1349 flight status page for this flight to view local times or setup timezone preferences in your user account.

Time Position Orientation Groundspeed Altitude Reporting Facility
EDT Latitude Longitude Course Direction KTS MPH feet Rate Location/Type
07:14AM 38.3478 -81.6236 207° Southwest 159 183 2,900  Level Indianapolis Center
07:15AM 38.2961 -81.6533 204° Southwest 202 232 5,000 2,640 Climbing Indianapolis Center
07:16AM 38.0764 -81.7535 202° Southwest  Level FlightAware Approximate
07:16AM 38.2311 -81.6919 205° Southwest 256 295 8,300  Level Indianapolis Center
07:17AM 37.9766 -81.8056 204° Southwest  Level FlightAware Approximate
07:17AM 38.1436 -81.7417 204° Southwest 283 326 11,100  Level Indianapolis Center
07:18AM 37.8778 -81.8605 204° Southwest  Level FlightAware Approximate
07:18AM 38.0553 -81.7911 204° Southwest 348 400 13,700  Level Indianapolis Center
07:19AM 37.7813 -81.9217 207° Southwest  Level FlightAware Approximate
07:19AM 37.9633 -81.8450 205° Southwest 361 415 16,500  Level Indianapolis Center
07:20AM 37.8650 -81.9008 204° Southwest 381 438 18,600 2,220 Climbing Indianapolis Center
07:21AM 37.7675 -81.9558 204° Southwest 396 456 21,100 2,280 Climbing Indianapolis Center
07:22AM 37.6647 -82.0164 205° Southwest 404 465 23,300 1,980 Climbing Indianapolis Center
07:23AM 37.5564 -82.0767 204° Southwest 419 482 25,200 1,860 Climbing Indianapolis Center
07:24AM 37.4278 -82.1506 205° Southwest 429 494 27,100 1,740 Climbing Indianapolis Center
07:25AM 37.3139 -82.2139 204° Southwest 443 510 28,800 1,440 Climbing Indianapolis Center
07:26AM 37.1906 -82.2856 205° Southwest 482 555 30,200 1,500 Climbing Atlanta Center
07:27AM 37.0789 -82.3453 203° Southwest 464 534 31,900 900 Climbing Atlanta Center
07:28AM 36.9650 -82.4072 203° Southwest 453 521 32,000  Climbing Atlanta Center
07:29AM 36.8553 -82.4692 204° Southwest 443 510 32,000  Level Atlanta Center
07:30AM 36.7433 -82.5311 204° Southwest 443 510 32,000  Level Atlanta Center
07:31AM 36.6336 -82.5900 203° Southwest 437 503 32,000  Level Atlanta Center
07:32AM 36.5217 -82.6514 204° Southwest 437 503 32,000  Level Atlanta Center
07:33AM 36.4097 -82.7128 204° Southwest 437 503 32,000  Level Atlanta Center
07:34AM 36.2978 -82.7764 205° Southwest 437 503 32,000  Level Atlanta Center
07:35AM 36.1964 -82.8319 204° Southwest 437 503 32,000  Level Atlanta Center
07:36AM 36.0864 -82.8903 203° Southwest 437 503 32,000  Level Atlanta Center
07:37AM 35.9742 -82.9508 204° Southwest 442 509 32,000  Level Atlanta Center
07:38AM 35.8661 -83.0111 204° Southwest 437 503 32,000  Level Atlanta Center
07:39AM 35.7539 -83.0586 199° South 437 503 32,000 -180 Level Atlanta Center
07:40AM 35.6333 -83.0983 195° South 442 509 31,700 -600 Descending Atlanta Center
07:41AM 35.5211 -83.1533 202° Southwest 442 509 30,800 -960 Descending Atlanta Center
07:42AM 35.4089 -83.2081 202° Southwest 442 509 29,800 -900 Descending Atlanta Center
07:43AM 35.2986 -83.2625 202° Southwest 435 501 29,000 -780 Descending Atlanta Center
07:44AM 35.1778 -83.3222 202° Southwest 435 501 28,300 -900 Descending Atlanta Center
07:45AM 35.0822 -83.3686 202° Southwest 430 495 27,200 -1,080 Descending Atlanta Center
07:46AM 34.9761 -83.4203 202° Southwest 430 495 26,200 -1,140 Descending Atlanta Center
07:47AM 34.8594 -83.4769 202° Southwest 423 487 25,000 -1,140 Descending Atlanta Center
07:48AM 34.7553 -83.5256 201° Southwest 416 479 24,000 -600 Descending Atlanta Center
07:49AM 34.6617 -83.5692 201° Southwest 409 471 23,800 -600 Descending Atlanta Center
07:50AM 34.5533 -83.6253 203° Southwest 420 483 22,800 -960 Descending Atlanta Center
07:51AM 34.4428 -83.6761 201° Southwest 433 498 21,900 -1,500 Descending Atlanta Center
07:52AM 34.3322 -83.7294 202° Southwest 428 493 19,900 -2,160 Descending Atlanta Center
07:53AM 34.2281 -83.7800 202° Southwest 418 481 17,600 -2,460 Descending Atlanta Center
07:54AM 34.1156 -83.8331 201° Southwest 406 467 15,000 -1,980 Descending Atlanta Center
07:55AM 34.0333 -83.9000 214° Southwest 380 437 14,000 -1,440 Descending Atlanta TRACON
07:56AM 33.9833 -83.9667 228° Southwest 370 426 12,600 -1,080 Descending Atlanta TRACON
07:57AM 33.9000 -84.0500 220° Southwest 360 414 12,000 -300 Descending Atlanta TRACON
07:58AM 33.8167 -84.1167 214° Southwest 339 390 12,000  Level Atlanta TRACON
07:59AM 33.7500 -84.1667 212° Southwest 296 341 12,000  Level Atlanta TRACON
08:00AM 33.7333 -84.2333 253° West 277 319 12,000  Level Atlanta TRACON
08:01AM 33.7333 -84.3333 270° West 276 318 12,000 -1,020 Level Atlanta TRACON
08:02AM 33.7333 -84.4167 270° West 277 319 10,100 -2,460 Descending Atlanta TRACON
08:03AM 33.7333 -84.5000 270° West 269 310 7,100 -2,700 Descending Atlanta TRACON
08:04AM 33.7333 -84.5833 270° West 266 306 4,700 -1,740 Descending Atlanta TRACON
08:05AM 33.7333 -84.6667 270° West 236 272 4,000 -420 Descending Atlanta TRACON
08:06AM 33.6833 -84.7000 209° Southwest 209 241 4,000  Level Atlanta TRACON
08:07AM 33.6500 -84.6500 129° Southeast 181 208 4,000 -120 Level Atlanta TRACON
08:08AM 33.6500 -84.6000 90° East 176 203 3,800 -660 Descending Atlanta TRACON
08:09AM 33.6500 -84.5500 90° East 163 188 2,800 -840 Descending Atlanta TRACON
08:10AM 33.6500 -84.5000 90° East 121 139 2,200 -720 Descending Atlanta TRACON
08:11AM 33.6500 -84.4667 90° East 121 139 1,500 -780 Descending Atlanta TRACON